createdAt,value
2018-11-23T00:03:22.848Z,88.59
2018-11-23T00:08:16.346Z,88.52
2018-11-23T00:13:10.121Z,88.71
2018-11-23T00:18:04.115Z,89.03
2018-11-23T00:22:57.697Z,88.51
2018-11-23T00:27:52.503Z,88.09
2018-11-23T00:32:46.427Z,87.86
2018-11-23T00:37:39.895Z,88.92
2018-11-23T00:42:33.334Z,89.16
2018-11-23T00:47:27.273Z,88.31
2018-11-23T00:52:20.686Z,88.73
2018-11-23T00:57:15.159Z,89.31
2018-11-23T01:02:08.843Z,88.65
2018-11-23T01:07:02.753Z,88.77
2018-11-23T01:11:56.205Z,88.57
2018-11-23T01:16:49.712Z,89.01
2018-11-23T01:21:43.243Z,89.05
2018-11-23T01:26:37.158Z,89.04
2018-11-23T01:31:30.690Z,89.46
2018-11-23T01:36:25.442Z,89.35
2018-11-23T01:41:18.915Z,89.54
2018-11-23T01:46:12.627Z,89.83
2018-11-23T01:51:06.147Z,89.41
2018-11-23T01:55:59.600Z,89.81
2018-11-23T02:00:52.958Z,90.29
2018-11-23T02:05:47.433Z,90.40
2018-11-23T02:10:40.816Z,90.28
2018-11-23T02:15:34.212Z,89.72
2018-11-23T02:20:27.654Z,89.81
2018-11-23T02:25:21.125Z,89.68
2018-11-23T02:30:18.441Z,89.69
2018-11-23T02:35:12.362Z,90.03
2018-11-23T02:40:06.857Z,90.06
2018-11-23T02:45:00.386Z,89.39
2018-11-23T02:49:54.466Z,90.15
2018-11-23T02:54:47.866Z,84.47
2018-11-23T02:59:41.277Z,83.78
2018-11-23T03:04:34.926Z,85.80
2018-11-23T03:09:28.365Z,84.54
2018-11-23T03:14:21.927Z,81.99
2018-11-23T03:19:15.686Z,82.00
2018-11-23T03:24:09.152Z,81.48
2018-11-23T03:29:03.408Z,82.46
2018-11-23T03:33:57.035Z,83.15
2018-11-23T03:38:50.813Z,84.82
2018-11-23T03:43:44.423Z,85.34
2018-11-23T03:48:38.236Z,85.31
2018-11-23T03:53:32.105Z,87.12
2018-11-23T03:58:27.723Z,84.77
2018-11-23T04:03:21.294Z,84.79
2018-11-23T04:08:14.872Z,84.86
2018-11-23T04:13:08.275Z,85.96
2018-11-23T04:18:01.797Z,86.39
2018-11-23T04:22:55.571Z,85.57
2018-11-23T04:27:49.055Z,84.37
2018-11-23T04:32:42.876Z,86.09
2018-11-23T04:37:36.870Z,86.62
2018-11-23T04:42:30.867Z,87.19
2018-11-23T04:47:24.991Z,87.32
2018-11-23T04:52:18.341Z,87.11
2018-11-23T04:57:11.935Z,86.48
2018-11-23T05:02:06.248Z,87.29
2018-11-23T05:06:59.685Z,86.66
2018-11-23T05:11:53.203Z,86.07
2018-11-23T05:16:47.120Z,86.54
2018-11-23T05:21:40.650Z,88.17
2018-11-23T05:26:34.055Z,87.75
2018-11-23T05:31:27.656Z,89.10
2018-11-23T05:36:21.130Z,87.67
2018-11-23T05:41:14.601Z,87.34
2018-11-23T05:46:08.256Z,87.50
2018-11-23T05:51:01.727Z,87.53
2018-11-23T05:55:55.550Z,86.77
2018-11-23T06:00:49.026Z,86.80
2018-11-23T06:05:42.952Z,86.87
2018-11-23T06:10:36.381Z,88.56
2018-11-23T06:15:29.915Z,87.83
2018-11-23T06:20:24.872Z,86.73
2018-11-23T06:25:57.568Z,87.00
2018-11-23T06:30:51.101Z,86.59
2018-11-23T06:35:44.736Z,89.29
2018-11-23T06:40:38.410Z,86.90
2018-11-23T06:45:35.118Z,88.45
2018-11-23T06:50:28.604Z,87.36
2018-11-23T06:55:22.190Z,87.88
2018-11-23T07:00:16.434Z,85.63
2018-11-23T07:05:10.526Z,86.14
2018-11-23T07:10:04.262Z,86.88
2018-11-23T07:14:57.761Z,86.13
2018-11-23T07:19:56.377Z,84.92
2018-11-23T07:24:50.054Z,86.12
2018-11-23T07:29:43.584Z,84.31
2018-11-23T07:34:37.076Z,84.55
2018-11-23T07:39:41.506Z,83.00
2018-11-23T07:44:35.055Z,81.79
2018-11-23T07:49:28.659Z,82.06
2018-11-23T07:54:22.718Z,81.86
2018-11-23T07:59:18.061Z,81.58
2018-11-23T08:04:11.995Z,82.79
2018-11-23T08:09:08.733Z,81.73
2018-11-23T08:14:02.305Z,82.58
2018-11-23T08:18:56.604Z,82.99
2018-11-23T08:23:50.318Z,85.71
2018-11-23T08:28:43.781Z,83.85
2018-11-23T08:33:37.342Z,85.12
2018-11-23T08:38:31.333Z,82.13
2018-11-23T08:43:24.810Z,83.06
2018-11-23T08:48:18.914Z,83.54
2018-11-23T08:53:12.508Z,85.17
2018-11-23T08:58:06.109Z,82.80
2018-11-23T09:03:00.872Z,82.18
2018-11-23T09:07:55.193Z,81.90
2018-11-23T09:12:50.893Z,84.49
2018-11-23T09:17:45.024Z,82.76
2018-11-23T09:22:38.516Z,82.22
2018-11-23T09:27:32.405Z,84.71
2018-11-23T09:32:26.000Z,81.14
2018-11-23T09:37:19.994Z,79.35
2018-11-23T09:42:13.551Z,78.97
2018-11-23T09:47:10.146Z,79.09
2018-11-23T09:52:00.640Z,77.67
2018-11-23T09:56:54.323Z,79.45
2018-11-23T10:01:47.791Z,78.21
2018-11-23T10:06:41.520Z,77.36
2018-11-23T10:11:35.021Z,76.53
2018-11-23T10:16:28.902Z,76.84
2018-11-23T10:21:22.401Z,75.75
2018-11-23T10:26:15.741Z,76.26
2018-11-23T10:31:09.468Z,74.31
2018-11-23T10:36:03.001Z,73.99
2018-11-23T10:40:56.937Z,72.70
2018-11-23T10:45:50.420Z,72.67
2018-11-23T10:50:44.007Z,72.23
2018-11-23T10:55:38.170Z,72.14
2018-11-23T11:00:37.183Z,71.41
2018-11-23T11:06:34.424Z,70.91
2018-11-23T11:11:28.130Z,70.81
2018-11-23T11:16:21.980Z,69.96
2018-11-23T11:21:16.188Z,70.30
2018-11-23T11:26:10.599Z,71.42
2018-11-23T11:31:05.436Z,69.50
2018-11-23T11:35:59.307Z,69.80
2018-11-23T11:40:53.757Z,69.40
2018-11-23T11:45:47.400Z,70.16
2018-11-23T11:50:40.969Z,71.66
2018-11-23T11:55:34.661Z,70.54
2018-11-23T12:00:28.155Z,70.42
2018-11-23T12:05:21.713Z,71.09
2018-11-23T12:10:18.540Z,70.64
2018-11-23T12:15:12.924Z,69.29
2018-11-23T12:20:08.983Z,68.29
2018-11-23T12:25:02.707Z,70.74
2018-11-23T12:29:56.865Z,71.67
2018-11-23T12:34:50.650Z,71.42
2018-11-23T12:39:44.773Z,72.95
2018-11-23T12:44:39.865Z,72.91
2018-11-23T12:49:32.706Z,72.52
2018-11-23T12:54:26.379Z,72.69
2018-11-23T12:59:20.052Z,74.61
2018-11-23T13:04:14.074Z,73.50
2018-11-23T13:09:08.733Z,73.21
2018-11-23T13:14:02.760Z,73.79
2018-11-23T13:18:56.249Z,74.54
2018-11-23T13:23:49.866Z,74.61
2018-11-23T13:28:43.541Z,73.80
2018-11-23T13:33:37.129Z,74.26
2018-11-23T13:38:30.686Z,75.74
2018-11-23T13:43:26.884Z,75.21
2018-11-23T13:48:22.210Z,74.72
2018-11-23T13:53:15.975Z,75.19
2018-11-23T13:58:10.696Z,75.01
2018-11-23T14:03:05.043Z,75.87
2018-11-23T14:07:59.674Z,75.28
2018-11-23T14:12:53.401Z,75.58
2018-11-23T14:17:48.902Z,75.08
2018-11-23T14:22:42.349Z,75.91
2018-11-23T14:27:36.335Z,76.42
2018-11-23T14:32:30.167Z,77.09
2018-11-23T14:37:24.178Z,76.92
2018-11-23T14:42:18.240Z,77.85
2018-11-23T14:47:11.781Z,77.66
2018-11-23T14:52:06.637Z,78.47
2018-11-23T14:57:01.176Z,79.25
2018-11-23T15:01:54.851Z,79.47
2018-11-23T15:06:48.340Z,79.58
2018-11-23T15:16:43.865Z,79.03
2018-11-23T15:21:37.345Z,79.42
2018-11-23T15:26:30.905Z,80.68
2018-11-23T15:31:25.392Z,81.34
2018-11-23T15:36:19.006Z,81.02
2018-11-23T15:41:12.570Z,81.50
2018-11-23T15:46:06.684Z,82.61
2018-11-23T15:51:06.279Z,82.21
2018-11-23T15:55:59.919Z,82.05
2018-11-23T16:00:53.563Z,81.61
2018-11-23T16:05:47.252Z,81.73
2018-11-23T16:10:40.998Z,80.85
2018-11-23T16:15:34.995Z,81.50
2018-11-23T16:20:31.148Z,83.95
2018-11-23T16:25:24.934Z,83.80
2018-11-23T16:30:20.951Z,83.08
2018-11-23T16:35:19.156Z,83.27
2018-11-23T16:40:19.810Z,83.79
2018-11-23T16:45:18.081Z,84.43
2018-11-23T16:50:12.482Z,85.04
2018-11-23T16:55:08.118Z,85.19
2018-11-23T17:00:09.188Z,85.30
2018-11-23T17:05:02.851Z,85.19
2018-11-23T17:09:56.527Z,83.09
2018-11-23T17:14:50.826Z,83.22
2018-11-23T17:19:44.533Z,83.17
2018-11-23T17:24:38.239Z,83.33
2018-11-23T17:29:34.022Z,83.40
2018-11-23T17:34:26.660Z,83.04
2018-11-23T17:39:20.166Z,83.33
2018-11-23T17:44:14.590Z,83.23
2018-11-23T17:49:09.009Z,83.42
2018-11-23T17:54:02.841Z,83.24
2018-11-23T17:58:56.568Z,83.28
2018-11-23T18:08:51.449Z,84.43
2018-11-23T18:13:46.100Z,84.43
2018-11-23T18:18:39.706Z,85.25
2018-11-23T18:23:33.190Z,85.87
2018-11-23T18:28:26.969Z,85.39
2018-11-23T18:33:20.452Z,85.47
2018-11-23T18:38:14.136Z,85.50
2018-11-23T18:43:07.615Z,86.46
2018-11-23T18:48:01.358Z,86.56
2018-11-23T18:52:55.190Z,86.57
2018-11-23T18:57:49.485Z,86.02
2018-11-23T19:02:44.220Z,86.81
2018-11-23T19:07:38.195Z,86.05
2018-11-23T19:12:31.931Z,86.59
2018-11-23T19:17:25.464Z,87.26
2018-11-23T19:22:18.914Z,86.51
2018-11-23T19:27:12.739Z,86.75
2018-11-23T19:32:06.244Z,86.51
2018-11-23T19:37:00.167Z,86.96
2018-11-23T19:41:53.714Z,85.75
2018-11-23T19:46:48.697Z,86.10
2018-11-23T19:51:42.210Z,86.58
2018-11-23T19:56:35.900Z,87.18
2018-11-23T20:01:29.480Z,87.45
2018-11-23T20:06:23.340Z,87.68
2018-11-23T20:11:16.869Z,87.61
2018-11-23T20:16:10.396Z,88.22
2018-11-23T20:21:04.461Z,87.88
2018-11-23T20:25:58.068Z,86.53
2018-11-23T20:30:52.476Z,85.70
2018-11-23T20:35:46.119Z,85.91
2018-11-23T20:40:40.365Z,86.46
2018-11-23T20:45:35.178Z,85.83
2018-11-23T20:50:29.361Z,85.81
2018-11-23T20:55:23.504Z,85.30
2018-11-23T21:00:18.955Z,85.16
2018-11-23T21:05:13.910Z,85.42
2018-11-23T21:10:20.461Z,86.31
2018-11-23T21:15:28.624Z,85.64
2018-11-23T21:20:22.227Z,85.92
2018-11-23T21:25:16.261Z,85.71
2018-11-23T21:30:19.914Z,85.30
2018-11-23T21:35:13.837Z,84.48
2018-11-23T21:40:10.550Z,85.05
2018-11-23T21:45:04.543Z,84.54
2018-11-23T21:49:58.188Z,84.41
2018-11-23T21:54:51.608Z,84.35
2018-11-23T21:59:45.755Z,82.03
2018-11-23T22:04:39.450Z,80.59
2018-11-23T22:09:33.279Z,80.28
2018-11-23T22:14:26.864Z,81.09
2018-11-23T22:19:22.526Z,80.63
2018-11-23T22:24:16.131Z,81.16
2018-11-23T22:29:09.727Z,80.03
2018-11-23T22:34:03.332Z,79.14
2018-11-23T22:38:56.837Z,78.77
2018-11-23T22:43:50.856Z,79.53
2018-11-23T22:48:44.815Z,80.94
2018-11-23T22:53:38.259Z,83.77
2018-11-23T22:58:32.126Z,84.54
2018-11-23T23:03:26.132Z,85.21
2018-11-23T23:08:20.113Z,85.92
2018-11-23T23:13:13.682Z,86.73
2018-11-23T23:18:07.132Z,87.58
2018-11-23T23:23:01.944Z,88.30
2018-11-23T23:27:56.063Z,89.14
2018-11-23T23:32:49.658Z,88.08
2018-11-23T23:37:43.082Z,87.67
2018-11-23T23:42:36.592Z,87.71
2018-11-23T23:47:30.096Z,87.95
2018-11-23T23:52:23.568Z,88.18
2018-11-23T23:57:17.151Z,87.80
